createdAt,value
2023-11-30T00:01:25.602Z,98424.38
2023-11-30T00:03:53.129Z,98421.78
2023-11-30T00:06:20.807Z,98432.53
2023-11-30T00:08:48.303Z,98419.22
2023-11-30T00:11:15.706Z,98411.47
2023-11-30T00:13:43.179Z,98412.31
2023-11-30T00:16:11.399Z,98432.44
2023-11-30T00:18:38.722Z,98413.13
2023-11-30T00:21:06.974Z,98415.28
2023-11-30T00:23:36.436Z,98422.75
2023-11-30T00:26:03.925Z,98408.56
2023-11-30T00:28:31.377Z,98385.88
2023-11-30T00:30:58.740Z,98421.84
2023-11-30T00:33:26.174Z,98405.06
2023-11-30T00:35:53.734Z,98416.69
2023-11-30T00:38:21.062Z,98417.84
2023-11-30T00:40:48.480Z,98404.34
2023-11-30T00:43:15.871Z,98400.75
2023-11-30T00:45:43.517Z,98402.47
2023-11-30T00:48:10.897Z,98422.22
2023-11-30T00:50:38.472Z,98424.72
2023-11-30T00:53:05.825Z,98389.50
2023-11-30T00:55:33.098Z,98416.91
2023-11-30T00:58:00.407Z,98382.03
2023-11-30T01:00:27.829Z,98391.09
2023-11-30T01:02:55.205Z,98378.63
2023-11-30T01:05:22.871Z,98396.06
2023-11-30T01:07:50.174Z,98394.56
2023-11-30T01:10:17.514Z,98391.00
2023-11-30T01:12:44.944Z,98394.41
2023-11-30T01:15:12.302Z,98396.06
2023-11-30T01:17:39.741Z,98394.47
2023-11-30T01:20:07.871Z,98388.59
2023-11-30T01:22:35.155Z,98383.34
2023-11-30T01:25:02.468Z,98399.78
2023-11-30T01:27:29.988Z,98382.25
2023-11-30T01:29:57.385Z,98381.91
2023-11-30T01:32:24.754Z,98373.75
2023-11-30T01:34:52.098Z,98372.69
2023-11-30T01:37:19.401Z,98369.38
2023-11-30T01:39:47.838Z,98366.97
2023-11-30T01:42:15.661Z,98371.84
2023-11-30T01:44:42.838Z,98391.69
2023-11-30T01:47:10.295Z,98394.44
2023-11-30T01:49:37.645Z,98377.69
2023-11-30T01:52:05.991Z,98348.44
2023-11-30T01:54:33.615Z,98371.00
2023-11-30T01:57:01.244Z,98366.03
2023-11-30T01:59:28.734Z,98369.19
2023-11-30T02:01:56.224Z,98361.63
2023-11-30T02:04:23.994Z,98376.00
2023-11-30T02:06:51.437Z,98368.25
2023-11-30T02:09:18.829Z,98355.72
2023-11-30T02:11:46.431Z,98329.66
2023-11-30T02:14:13.701Z,98342.09
2023-11-30T02:16:41.100Z,98348.66
2023-11-30T02:19:08.496Z,98341.09
2023-11-30T02:21:35.811Z,98351.13
2023-11-30T02:24:03.541Z,98343.41
2023-11-30T02:26:30.774Z,98373.38
2023-11-30T02:28:58.008Z,98354.09
2023-11-30T02:31:25.260Z,98352.44
2023-11-30T02:33:52.645Z,98343.88
2023-11-30T02:36:20.049Z,98347.28
2023-11-30T02:38:47.292Z,98338.91
2023-11-30T02:41:14.839Z,98322.94
2023-11-30T02:43:42.146Z,98324.50
2023-11-30T02:46:12.485Z,98327.41
2023-11-30T02:48:40.060Z,98305.84
2023-11-30T02:51:07.614Z,98317.78
2023-11-30T02:53:34.921Z,98305.00
2023-11-30T02:56:02.320Z,98325.75
2023-11-30T02:58:29.745Z,98325.66
2023-11-30T03:00:57.087Z,98331.25
2023-11-30T03:03:24.479Z,98320.41
2023-11-30T03:05:51.891Z,98308.41
2023-11-30T03:08:19.230Z,98303.53
2023-11-30T03:10:46.592Z,98308.78
2023-11-30T03:13:13.938Z,98287.25
2023-11-30T03:15:48.530Z,98312.84
2023-11-30T03:18:16.157Z,98309.81
2023-11-30T03:20:43.537Z,98306.97
2023-11-30T03:23:10.960Z,98297.91
2023-11-30T03:25:40.644Z,98292.94
2023-11-30T03:28:08.004Z,98292.56
2023-11-30T03:30:35.438Z,98278.47
2023-11-30T03:33:03.000Z,98271.69
2023-11-30T03:35:30.446Z,98284.13
2023-11-30T03:37:57.963Z,98271.59
2023-11-30T03:40:25.399Z,98283.75
2023-11-30T03:42:52.926Z,98271.13
2023-11-30T03:45:21.438Z,98251.03
2023-11-30T03:47:48.804Z,98249.84
2023-11-30T03:50:16.124Z,98239.72
2023-11-30T03:52:43.544Z,98246.16
2023-11-30T03:55:11.020Z,98238.41
2023-11-30T03:57:38.352Z,98227.66
2023-11-30T04:00:09.096Z,98232.34
2023-11-30T04:02:36.481Z,98215.19
2023-11-30T04:05:05.358Z,98216.13
2023-11-30T04:07:33.283Z,98215.84
2023-11-30T04:10:00.621Z,98217.31
2023-11-30T04:12:27.930Z,98198.63
2023-11-30T04:14:55.404Z,98203.88
2023-11-30T04:17:22.991Z,98202.75
2023-11-30T04:19:50.641Z,98210.78
2023-11-30T04:22:18.322Z,98192.72
2023-11-30T04:24:45.871Z,98214.91
2023-11-30T04:27:13.226Z,98193.38
2023-11-30T04:29:40.558Z,98195.88
2023-11-30T04:32:08.217Z,98186.72
2023-11-30T04:34:35.771Z,98190.91
2023-11-30T04:37:03.192Z,98196.66
2023-11-30T04:39:30.636Z,98207.53
2023-11-30T04:41:58.104Z,98194.56
2023-11-30T04:44:30.114Z,98194.75
2023-11-30T04:46:58.332Z,98195.78
2023-11-30T04:49:25.666Z,98187.19
2023-11-30T04:51:53.047Z,98191.13
2023-11-30T04:54:20.365Z,98190.53
2023-11-30T04:56:47.689Z,98198.69
2023-11-30T04:59:15.082Z,98187.75
2023-11-30T05:01:42.673Z,98163.31
2023-11-30T05:04:10.745Z,98184.88
2023-11-30T05:06:38.243Z,98198.75
2023-11-30T05:09:07.186Z,98178.69
2023-11-30T05:11:34.526Z,98172.00
2023-11-30T05:14:01.871Z,98161.94
2023-11-30T05:16:29.175Z,98159.38
2023-11-30T05:18:56.483Z,98171.59
2023-11-30T05:21:23.932Z,98137.72
2023-11-30T05:23:52.660Z,98163.22
2023-11-30T05:26:19.925Z,98167.44
2023-11-30T05:28:47.616Z,98164.75
2023-11-30T05:31:14.879Z,98180.31
2023-11-30T05:33:42.202Z,98173.69
2023-11-30T05:36:10.202Z,98164.47
2023-11-30T05:38:37.594Z,98172.88
2023-11-30T05:41:05.013Z,98159.59
2023-11-30T05:43:36.219Z,98138.53
2023-11-30T05:46:06.569Z,98150.97
2023-11-30T05:48:35.157Z,98157.38
2023-11-30T05:51:02.685Z,98144.13
2023-11-30T05:53:30.059Z,98172.19
2023-11-30T05:55:57.421Z,98148.09
2023-11-30T05:58:24.749Z,98145.50
2023-11-30T06:00:52.101Z,98128.03
2023-11-30T06:03:19.571Z,98153.88
2023-11-30T06:05:46.920Z,98155.53
2023-11-30T06:08:14.275Z,98160.94
2023-11-30T06:10:41.663Z,98135.28
2023-11-30T06:13:09.303Z,98134.44
2023-11-30T06:15:36.787Z,98156.16
2023-11-30T06:18:04.276Z,98162.06
2023-11-30T06:20:32.705Z,98146.69
2023-11-30T06:23:00.237Z,98145.22
2023-11-30T06:25:27.703Z,98153.28
2023-11-30T06:27:54.980Z,98150.59
2023-11-30T06:30:22.382Z,98148.22
2023-11-30T06:32:49.778Z,98136.53
2023-11-30T06:35:17.136Z,98138.09
2023-11-30T06:37:44.558Z,98148.13
2023-11-30T06:40:12.186Z,98129.84
2023-11-30T06:42:39.520Z,98136.25
2023-11-30T06:45:07.367Z,98142.16
2023-11-30T06:47:34.599Z,98166.25
2023-11-30T06:50:02.133Z,98142.78
2023-11-30T06:52:29.411Z,98138.63
2023-11-30T06:54:56.918Z,98133.03
2023-11-30T06:57:25.418Z,98146.38
2023-11-30T06:59:54.208Z,98137.19
2023-11-30T07:02:22.263Z,98154.56
2023-11-30T07:04:50.241Z,98126.22
2023-11-30T07:07:27.549Z,98147.75
2023-11-30T07:09:59.921Z,98142.88
2023-11-30T07:12:27.269Z,98125.78
2023-11-30T07:14:55.049Z,98115.25
2023-11-30T07:17:25.542Z,98116.09
2023-11-30T07:19:54.068Z,98131.28
2023-11-30T07:22:23.595Z,98118.03
2023-11-30T07:24:51.122Z,98117.31
2023-11-30T07:27:19.803Z,98136.66
2023-11-30T07:29:48.015Z,98135.91
2023-11-30T07:32:19.184Z,98126.50
2023-11-30T07:34:46.876Z,98147.94
2023-11-30T07:37:20.904Z,98125.56
2023-11-30T07:39:48.246Z,98099.31
2023-11-30T07:42:28.676Z,98101.78
2023-11-30T07:45:01.511Z,98097.88
2023-11-30T07:47:29.693Z,98101.94
2023-11-30T07:49:57.025Z,98120.41
2023-11-30T07:52:24.402Z,98138.53
2023-11-30T07:54:51.856Z,98111.22
2023-11-30T07:57:19.705Z,98046.41
2023-11-30T07:59:47.967Z,98142.19
2023-11-30T08:02:17.765Z,98132.34
2023-11-30T08:04:47.366Z,98130.94
2023-11-30T08:07:14.834Z,98076.44
2023-11-30T08:09:42.240Z,98058.97
2023-11-30T08:12:09.741Z,98049.75
2023-11-30T08:14:37.098Z,98076.44
2023-11-30T08:17:06.471Z,98140.34
2023-11-30T08:19:34.453Z,98033.22
2023-11-30T08:22:01.976Z,98041.09
2023-11-30T08:24:30.659Z,97992.53
2023-11-30T08:26:58.493Z,98107.31
2023-11-30T08:29:25.743Z,98115.38
2023-11-30T08:31:53.245Z,97981.69
2023-11-30T08:34:20.665Z,98053.53
2023-11-30T08:36:49.236Z,98058.94
2023-11-30T08:39:25.068Z,98026.38
2023-11-30T08:41:54.963Z,98083.25
2023-11-30T08:44:25.117Z,98017.81
2023-11-30T08:46:53.506Z,98097.50
2023-11-30T08:49:21.044Z,98049.06
2023-11-30T08:51:48.418Z,97944.69
2023-11-30T08:54:15.825Z,98035.06
2023-11-30T08:56:43.324Z,98061.47
2023-11-30T08:59:10.844Z,98081.31
2023-11-30T09:01:38.319Z,98066.00
2023-11-30T09:04:06.608Z,98080.06
2023-11-30T09:06:34.969Z,98060.22
2023-11-30T09:09:03.064Z,98074.47
2023-11-30T09:11:31.839Z,98076.97
2023-11-30T09:13:59.314Z,98071.59
2023-11-30T09:16:27.032Z,98068.09
2023-11-30T09:18:55.790Z,98093.72
2023-11-30T09:21:25.468Z,98024.75
2023-11-30T09:23:53.964Z,97994.38
2023-11-30T09:26:23.426Z,98009.16
2023-11-30T09:28:51.017Z,98010.00
2023-11-30T09:31:18.574Z,98032.75
2023-11-30T09:33:45.982Z,97992.69
2023-11-30T09:36:14.431Z,98032.56
2023-11-30T09:38:42.691Z,97976.84
2023-11-30T09:41:14.622Z,97990.09
2023-11-30T09:43:41.998Z,97918.09
2023-11-30T09:46:10.915Z,97990.41
2023-11-30T09:48:38.797Z,98000.84
2023-11-30T09:51:06.682Z,97963.34
2023-11-30T09:53:34.393Z,97940.22
2023-11-30T09:56:01.773Z,97981.34
2023-11-30T09:58:29.329Z,97979.66
2023-11-30T10:00:56.936Z,97984.31
2023-11-30T10:03:34.931Z,97955.94
2023-11-30T10:06:02.717Z,98041.66
2023-11-30T10:08:30.080Z,97987.84
2023-11-30T10:10:57.529Z,97956.44
2023-11-30T10:13:26.807Z,97978.75
2023-11-30T10:15:54.636Z,98033.38
2023-11-30T10:18:22.400Z,97956.03
2023-11-30T10:20:49.993Z,97898.72
2023-11-30T10:23:17.605Z,98031.34
2023-11-30T10:25:47.769Z,97953.22
2023-11-30T10:28:15.739Z,97957.06
2023-11-30T10:30:45.070Z,97979.28
2023-11-30T10:33:23.443Z,97959.44
2023-11-30T10:35:53.207Z,97999.69
2023-11-30T10:38:34.182Z,98001.56
2023-11-30T10:41:06.018Z,97907.41
2023-11-30T10:43:36.942Z,97913.59
2023-11-30T10:46:08.770Z,97967.06
2023-11-30T10:48:40.249Z,98006.50
2023-11-30T10:51:08.937Z,97906.28
2023-11-30T10:54:02.599Z,98006.50
2023-11-30T10:56:31.114Z,97944.56
2023-11-30T10:59:01.605Z,97933.00
2023-11-30T11:01:36.928Z,97916.88
2023-11-30T11:04:09.855Z,97945.69
2023-11-30T11:06:37.507Z,97955.50
2023-11-30T11:09:09.058Z,97997.00
2023-11-30T11:11:41.002Z,97980.59
2023-11-30T11:14:08.720Z,97984.41
2023-11-30T11:16:43.264Z,97989.25
2023-11-30T11:19:10.806Z,97856.63
2023-11-30T11:21:40.057Z,97969.13
2023-11-30T11:24:09.265Z,97980.69
2023-11-30T11:26:47.957Z,97876.84
2023-11-30T11:29:21.488Z,97904.19
2023-11-30T11:31:55.579Z,97911.50
2023-11-30T11:34:23.042Z,97874.16
2023-11-30T11:36:50.625Z,97850.75
2023-11-30T11:39:18.179Z,97852.06
2023-11-30T11:41:51.376Z,97829.38
2023-11-30T11:44:19.189Z,97831.75
2023-11-30T11:46:47.234Z,97933.91
2023-11-30T11:49:14.846Z,97946.28
2023-11-30T11:51:46.799Z,97957.53
2023-11-30T11:54:22.150Z,97941.22
2023-11-30T11:56:53.875Z,97941.66
2023-11-30T11:59:28.943Z,97921.81
2023-11-30T12:01:59.419Z,97936.69
2023-11-30T12:04:32.201Z,97941.13
2023-11-30T12:07:00.779Z,97917.88
2023-11-30T12:09:28.126Z,97924.41
2023-11-30T12:11:57.944Z,97928.44
2023-11-30T12:14:25.316Z,97916.34
2023-11-30T12:16:53.518Z,97924.09
2023-11-30T12:19:21.395Z,97915.41
2023-11-30T12:21:48.895Z,97915.31
2023-11-30T12:24:16.476Z,97898.69
2023-11-30T12:26:43.868Z,97903.44
2023-11-30T12:29:11.628Z,97901.06
2023-11-30T12:31:38.947Z,97914.50
2023-11-30T12:34:07.614Z,97898.38
2023-11-30T12:36:35.402Z,97935.75
2023-11-30T12:39:25.144Z,97896.00
2023-11-30T12:41:52.692Z,97877.94
2023-11-30T12:44:21.303Z,97881.16
2023-11-30T12:46:50.084Z,97888.38
2023-11-30T12:52:53.610Z,97835.97
2023-11-30T12:55:21.460Z,97911.91
2023-11-30T12:57:49.148Z,97807.50
2023-11-30T13:00:17.128Z,97872.78
2023-11-30T13:02:47.302Z,97907.34
2023-11-30T13:05:15.753Z,97886.22
2023-11-30T13:07:43.351Z,97897.06
2023-11-30T13:10:14.829Z,97908.41
2023-11-30T13:12:43.123Z,97916.16
2023-11-30T13:15:13.781Z,97914.59
2023-11-30T13:17:41.799Z,97909.56
2023-11-30T13:20:15.143Z,97899.53
2023-11-30T13:22:47.399Z,97883.09
2023-11-30T13:25:15.740Z,97913.78
2023-11-30T13:27:47.674Z,97896.66
2023-11-30T13:30:17.429Z,97896.22
2023-11-30T13:32:45.200Z,97897.28
2023-11-30T13:35:12.604Z,97873.31
2023-11-30T13:37:40.529Z,97910.47
2023-11-30T13:40:09.237Z,97880.63
2023-11-30T13:42:36.801Z,97878.88
2023-11-30T13:45:06.887Z,97871.34
2023-11-30T13:47:34.551Z,97887.97
2023-11-30T13:50:01.849Z,97908.59
2023-11-30T13:52:29.329Z,97857.00
2023-11-30T13:54:56.711Z,97877.94
2023-11-30T13:57:24.111Z,97872.56
2023-11-30T13:59:51.743Z,97855.13
2023-11-30T14:02:19.556Z,97877.03
2023-11-30T14:04:47.738Z,97850.41
2023-11-30T14:07:15.130Z,97859.38
2023-11-30T14:09:42.446Z,97878.88
2023-11-30T14:12:10.002Z,97872.09
2023-11-30T14:14:39.493Z,97865.47
2023-11-30T14:17:07.572Z,97842.38
2023-11-30T14:19:35.010Z,97866.41
2023-11-30T14:22:02.552Z,97859.09
2023-11-30T14:24:31.237Z,97866.09
2023-11-30T14:26:58.620Z,97872.09
2023-11-30T14:29:26.058Z,97862.19
2023-11-30T14:31:53.856Z,97850.00
2023-11-30T14:34:21.570Z,97872.78
2023-11-30T14:36:48.825Z,97884.84
2023-11-30T14:39:16.176Z,97848.03
2023-11-30T14:41:43.573Z,97862.19
2023-11-30T14:44:12.293Z,97859.50
2023-11-30T14:46:40.110Z,97864.03
2023-11-30T14:49:07.551Z,97861.13
2023-11-30T14:51:35.010Z,97868.13
2023-11-30T14:54:05.471Z,97863.28
2023-11-30T14:56:33.590Z,97870.63
2023-11-30T14:59:01.457Z,97862.97
2023-11-30T15:01:28.925Z,97851.22
2023-11-30T15:03:56.456Z,97865.34
2023-11-30T15:06:24.663Z,97859.44
2023-11-30T15:08:53.068Z,97868.34
2023-11-30T15:11:20.411Z,97851.44
2023-11-30T15:13:47.708Z,97857.81
2023-11-30T15:16:15.071Z,97839.44
2023-11-30T15:18:42.494Z,97854.50
2023-11-30T15:21:10.034Z,97860.06
2023-11-30T15:23:37.406Z,97837.78
2023-11-30T15:26:04.814Z,97844.38
2023-11-30T15:28:32.204Z,97853.06
2023-11-30T15:30:59.988Z,97853.81
2023-11-30T15:33:27.976Z,97877.72
2023-11-30T15:35:55.381Z,97849.75
2023-11-30T15:38:31.182Z,97849.13
2023-11-30T15:40:58.953Z,97860.28
2023-11-30T15:43:26.501Z,97861.94
2023-11-30T15:45:53.982Z,97863.50
2023-11-30T15:48:22.793Z,97860.50
2023-11-30T15:50:50.191Z,97851.31
2023-11-30T15:53:17.902Z,97852.66
2023-11-30T15:55:45.100Z,97877.63
2023-11-30T15:58:12.478Z,97861.34
2023-11-30T16:00:39.997Z,97847.38
2023-11-30T16:03:09.087Z,97844.81
2023-11-30T16:05:38.266Z,97853.59
2023-11-30T16:08:05.561Z,97850.16
2023-11-30T16:10:33.119Z,97842.31
2023-11-30T16:13:00.451Z,97836.44
2023-11-30T16:15:28.975Z,97825.81
2023-11-30T16:17:56.719Z,97827.69
2023-11-30T16:20:23.861Z,97857.91
2023-11-30T16:22:51.276Z,97841.59
2023-11-30T16:25:18.663Z,97828.53
2023-11-30T16:27:46.050Z,97830.06
2023-11-30T16:30:13.950Z,97842.53
2023-11-30T16:32:41.519Z,97827.91
2023-11-30T16:35:09.280Z,97860.06
2023-11-30T16:37:36.634Z,97847.91
2023-11-30T16:40:06.041Z,97829.03
2023-11-30T16:42:33.472Z,97837.09
2023-11-30T16:45:00.823Z,97837.00
2023-11-30T16:47:28.293Z,97828.75
2023-11-30T16:49:55.629Z,97841.94
2023-11-30T16:52:23.049Z,97822.25
2023-11-30T16:54:50.564Z,97815.03
2023-11-30T16:57:17.970Z,97824.41
2023-11-30T16:59:45.393Z,97837.63
2023-11-30T17:02:12.771Z,97835.97
2023-11-30T17:04:40.189Z,97822.38
2023-11-30T17:07:07.568Z,97849.06
2023-11-30T17:09:34.966Z,97840.94
2023-11-30T17:12:02.321Z,97837.00
2023-11-30T17:14:29.696Z,97834.75
2023-11-30T17:16:57.101Z,97859.59
2023-11-30T17:19:24.496Z,97842.47
2023-11-30T17:21:53.567Z,97842.59
2023-11-30T17:24:21.056Z,97857.84
2023-11-30T17:26:48.814Z,97815.56
2023-11-30T17:29:15.886Z,97858.69
2023-11-30T17:31:43.209Z,97781.84
2023-11-30T17:34:10.732Z,97811.44
2023-11-30T17:36:38.047Z,97848.78
2023-11-30T17:39:06.427Z,97823.41
2023-11-30T17:41:33.736Z,97854.56
2023-11-30T17:44:01.018Z,97812.47
2023-11-30T17:46:28.377Z,97800.50
2023-11-30T17:48:55.729Z,97833.91
2023-11-30T17:51:23.166Z,97842.47
2023-11-30T17:53:50.764Z,97814.50
2023-11-30T17:56:18.063Z,97858.47
2023-11-30T17:58:45.367Z,97835.25
2023-11-30T18:01:12.758Z,97850.84
2023-11-30T18:03:40.148Z,97825.25
2023-11-30T18:06:10.686Z,97816.19
2023-11-30T18:09:54.303Z,97812.63
2023-11-30T18:14:38.772Z,97840.81
2023-11-30T18:17:06.802Z,97811.72
2023-11-30T18:19:34.296Z,97812.03
2023-11-30T18:23:08.587Z,97840.38
2023-11-30T18:25:36.011Z,97844.00
2023-11-30T18:28:03.809Z,97836.03
2023-11-30T18:30:31.784Z,97828.59
2023-11-30T18:32:59.357Z,97833.06
2023-11-30T18:35:26.929Z,97834.91
2023-11-30T18:37:54.458Z,97797.19
2023-11-30T18:41:30.662Z,97837.13
2023-11-30T18:43:58.420Z,97828.59
2023-11-30T18:48:05.558Z,97846.25
2023-11-30T18:50:32.967Z,97852.00
2023-11-30T18:53:00.415Z,97827.31
2023-11-30T18:55:27.921Z,97821.03
2023-11-30T18:57:55.531Z,97839.41
2023-11-30T19:00:23.124Z,97821.13
2023-11-30T19:02:51.089Z,97805.44
2023-11-30T19:05:18.816Z,97837.72
2023-11-30T19:08:40.066Z,97831.44
2023-11-30T19:11:08.599Z,97824.28
2023-11-30T19:13:36.725Z,97854.50
2023-11-30T19:16:04.480Z,97841.78
2023-11-30T19:20:48.775Z,97837.84
2023-11-30T19:23:16.046Z,97840.91
2023-11-30T19:25:44.641Z,97863.22
2023-11-30T19:28:12.006Z,97835.69
2023-11-30T19:30:39.356Z,97834.94
2023-11-30T19:33:06.791Z,97848.56
2023-11-30T19:35:34.993Z,97832.06
2023-11-30T19:38:02.422Z,97833.13
2023-11-30T19:40:29.734Z,97856.47
2023-11-30T19:42:57.891Z,97827.22
2023-11-30T19:45:25.540Z,97833.72
2023-11-30T19:47:53.189Z,97825.94
2023-11-30T19:50:20.614Z,97819.31
2023-11-30T19:52:48.087Z,97846.66
2023-11-30T19:55:15.423Z,97858.63
2023-11-30T19:57:42.812Z,97863.97
2023-11-30T20:00:10.683Z,97834.22
2023-11-30T20:02:37.929Z,97869.22
2023-11-30T20:05:05.575Z,97842.22
2023-11-30T20:07:32.918Z,97847.28
2023-11-30T20:10:00.351Z,97843.50
2023-11-30T20:12:27.925Z,97845.25
2023-11-30T20:14:55.258Z,97863.88
2023-11-30T20:17:22.545Z,97851.47
2023-11-30T20:19:49.894Z,97858.56
2023-11-30T20:22:17.204Z,97835.19
2023-11-30T20:24:44.724Z,97849.66
2023-11-30T20:27:12.236Z,97830.41
2023-11-30T20:29:39.543Z,97819.13
2023-11-30T20:32:07.219Z,97834.16
2023-11-30T20:34:34.557Z,97828.38
2023-11-30T20:37:01.919Z,97824.63
2023-11-30T20:39:29.554Z,97832.69
2023-11-30T20:41:57.014Z,97853.59
2023-11-30T20:44:24.840Z,97819.25
2023-11-30T20:46:51.988Z,97859.09
2023-11-30T20:49:19.449Z,97837.97
2023-11-30T20:51:46.770Z,97803.44
2023-11-30T20:54:14.084Z,97844.81
2023-11-30T20:56:41.618Z,97857.19
2023-11-30T20:59:08.978Z,97840.34
2023-11-30T21:01:36.480Z,97860.38
2023-11-30T21:04:04.258Z,97865.63
2023-11-30T21:06:31.649Z,97841.56
2023-11-30T21:08:59.180Z,97845.59
2023-11-30T21:11:26.570Z,97846.25
2023-11-30T21:13:54.130Z,97863.16
2023-11-30T21:16:22.372Z,97844.44
2023-11-30T21:18:51.734Z,97835.66
2023-11-30T21:21:19.289Z,97838.69
2023-11-30T21:23:46.681Z,97859.03
2023-11-30T21:26:14.056Z,97828.66
2023-11-30T21:28:41.368Z,97836.06
2023-11-30T21:31:10.741Z,97877.00
2023-11-30T21:33:38.308Z,97830.22
2023-11-30T21:36:06.135Z,97802.66
2023-11-30T21:38:33.318Z,97874.22
2023-11-30T21:41:00.649Z,97852.25
2023-11-30T21:43:27.964Z,97839.06
2023-11-30T21:45:55.315Z,97870.84
2023-11-30T21:48:22.802Z,97878.16
2023-11-30T21:50:50.153Z,97852.59
2023-11-30T21:53:17.434Z,97868.03
2023-11-30T21:55:45.014Z,97884.09
2023-11-30T21:58:12.386Z,97874.44
2023-11-30T22:00:39.941Z,97871.63
2023-11-30T22:03:07.526Z,97877.72
2023-11-30T22:05:37.182Z,97872.41
2023-11-30T22:08:08.111Z,97865.25
2023-11-30T22:10:35.465Z,97853.56
2023-11-30T22:13:03.250Z,97862.22
2023-11-30T22:15:30.843Z,97855.72
2023-11-30T22:18:00.084Z,97881.69
2023-11-30T22:20:27.592Z,97866.78
2023-11-30T22:22:55.278Z,97873.19
2023-11-30T22:25:24.149Z,97856.91
2023-11-30T22:27:51.566Z,97876.72
2023-11-30T22:30:18.948Z,97828.38
2023-11-30T22:32:46.473Z,97867.34
2023-11-30T22:35:13.908Z,97833.50
2023-11-30T22:37:41.435Z,97854.91
2023-11-30T22:40:09.333Z,97831.31
2023-11-30T22:42:36.694Z,97862.03
2023-11-30T22:45:04.749Z,97851.56
2023-11-30T22:47:34.593Z,97883.34
2023-11-30T22:50:01.955Z,97867.28
2023-11-30T22:52:29.462Z,97847.38
2023-11-30T22:54:57.176Z,97848.41
2023-11-30T22:57:25.042Z,97843.13
2023-11-30T22:59:52.417Z,97849.53
2023-11-30T23:02:21.770Z,97857.25
2023-11-30T23:04:49.493Z,97847.13
2023-11-30T23:07:17.421Z,97861.00
2023-11-30T23:09:44.760Z,97844.03
2023-11-30T23:12:12.913Z,97862.72
2023-11-30T23:14:40.817Z,97796.75
2023-11-30T23:17:11.766Z,97862.66
2023-11-30T23:19:39.473Z,97858.94
2023-11-30T23:22:07.851Z,97861.91
2023-11-30T23:24:35.409Z,97857.81
2023-11-30T23:27:02.982Z,97843.88
2023-11-30T23:29:30.572Z,97850.91
2023-11-30T23:31:57.906Z,97857.56
2023-11-30T23:34:25.226Z,97837.13
2023-11-30T23:36:52.705Z,97836.38
2023-11-30T23:39:20.125Z,97857.38
2023-11-30T23:41:47.644Z,97840.16
2023-11-30T23:44:15.255Z,97832.00
2023-11-30T23:46:42.702Z,97832.41
2023-11-30T23:49:10.215Z,97848.75
2023-11-30T23:51:37.690Z,97844.50
2023-11-30T23:54:05.076Z,97842.28
2023-11-30T23:56:32.655Z,97841.94
2023-11-30T23:59:00.038Z,97849.78
